createdAt,value
2023-05-14T00:01:14.909Z,78.46
2023-05-14T00:06:18.544Z,78.61
2023-05-14T00:11:21.863Z,78.86
2023-05-14T00:16:25.548Z,79.45
2023-05-14T00:21:28.999Z,79.55
2023-05-14T00:26:32.489Z,79.83
2023-05-14T00:31:36.105Z,79.92
2023-05-14T00:36:39.550Z,79.43
2023-05-14T00:41:42.921Z,79.38
2023-05-14T00:46:46.511Z,79.80
2023-05-14T00:51:50.320Z,80.14
2023-05-14T00:56:57.157Z,79.96
2023-05-14T01:02:00.710Z,79.96
2023-05-14T01:07:17.796Z,80.06
2023-05-14T01:12:29.947Z,80.21
2023-05-14T01:17:38.718Z,80.26
2023-05-14T01:22:47.900Z,80.43
2023-05-14T01:28:04.084Z,80.36
2023-05-14T01:33:13.526Z,80.44
2023-05-14T01:38:19.153Z,80.82
2023-05-14T01:43:25.642Z,80.92
2023-05-14T01:48:30.126Z,80.77
2023-05-14T01:53:35.061Z,81.02
2023-05-14T01:58:58.652Z,80.93
2023-05-14T02:04:02.181Z,81.03
2023-05-14T02:09:05.748Z,81.03
2023-05-14T02:14:09.208Z,81.35
2023-05-14T02:19:12.815Z,81.61
2023-05-14T02:24:16.121Z,82.14
2023-05-14T02:29:19.645Z,82.26
2023-05-14T02:34:23.512Z,82.06
2023-05-14T02:39:27.191Z,81.72
2023-05-14T02:44:31.907Z,81.56
2023-05-14T02:49:35.279Z,81.90
2023-05-14T02:54:38.640Z,82.05
2023-05-14T02:59:41.853Z,82.41
2023-05-14T03:04:45.631Z,81.88
2023-05-14T03:09:49.009Z,81.94
2023-05-14T03:14:52.278Z,82.10
2023-05-14T03:19:55.674Z,82.40
2023-05-14T03:24:59.125Z,82.62
2023-05-14T03:30:02.526Z,82.90
2023-05-14T03:35:06.620Z,83.12
2023-05-14T03:40:21.758Z,83.12
2023-05-14T03:45:27.127Z,83.50
2023-05-14T03:50:30.712Z,83.65
2023-05-14T03:55:34.170Z,84.10
2023-05-14T04:00:38.091Z,84.77
2023-05-14T04:05:41.549Z,84.87
2023-05-14T04:10:47.997Z,85.30
2023-05-14T04:15:51.699Z,85.47
2023-05-14T04:20:55.009Z,85.59
2023-05-14T04:25:58.883Z,85.14
2023-05-14T04:31:02.121Z,83.86
2023-05-14T04:36:05.964Z,83.40
2023-05-14T04:41:09.188Z,82.40
2023-05-14T04:46:14.087Z,81.07
2023-05-14T04:51:17.573Z,80.28
2023-05-14T04:56:21.597Z,81.26
2023-05-14T05:01:25.064Z,79.34
2023-05-14T05:06:28.582Z,77.41
2023-05-14T05:11:31.821Z,76.72
2023-05-14T05:16:35.392Z,75.04
2023-05-14T05:21:40.909Z,73.05
2023-05-14T05:26:44.311Z,72.63
2023-05-14T05:31:48.635Z,73.52
2023-05-14T05:36:52.003Z,71.86
2023-05-14T05:41:55.321Z,70.08
2023-05-14T05:46:58.763Z,68.84
2023-05-14T05:52:02.219Z,69.75
2023-05-14T05:57:08.811Z,70.09
2023-05-14T06:02:12.073Z,68.53
2023-05-14T06:07:15.437Z,66.87
2023-05-14T06:12:18.630Z,65.41
2023-05-14T06:17:22.305Z,64.90
2023-05-14T06:22:25.676Z,64.60
2023-05-14T06:27:28.911Z,63.52
2023-05-14T06:32:32.334Z,62.27
2023-05-14T06:37:50.415Z,61.46
2023-05-14T06:42:56.344Z,61.10
2023-05-14T06:47:59.643Z,60.07
2023-05-14T06:53:03.059Z,58.16
2023-05-14T06:58:10.567Z,58.86
2023-05-14T07:03:13.860Z,57.92
2023-05-14T07:08:17.198Z,55.04
2023-05-14T07:13:20.577Z,53.42
2023-05-14T07:18:24.239Z,51.49
2023-05-14T07:23:27.566Z,49.53
2023-05-14T07:28:30.786Z,50.51
2023-05-14T07:33:34.122Z,49.62
2023-05-14T07:38:38.002Z,47.65
2023-05-14T07:43:41.294Z,48.39
2023-05-14T07:48:44.528Z,45.00
2023-05-14T07:53:47.798Z,45.02
2023-05-14T07:58:51.627Z,43.60
2023-05-14T08:03:55.118Z,42.07
2023-05-14T08:08:58.475Z,42.83
2023-05-14T08:14:01.678Z,41.30
2023-05-14T08:19:05.011Z,41.38
2023-05-14T08:24:08.445Z,40.61
2023-05-14T08:29:13.416Z,41.01
2023-05-14T08:34:18.695Z,41.04
2023-05-14T08:39:22.262Z,40.98
2023-05-14T08:44:36.438Z,40.17
2023-05-14T08:49:45.116Z,40.49
2023-05-14T08:54:51.476Z,40.17
2023-05-14T08:59:55.015Z,39.11
2023-05-14T09:05:00.311Z,39.39
2023-05-14T09:10:04.694Z,40.51
2023-05-14T09:15:08.827Z,38.84
2023-05-14T09:20:13.166Z,37.52
2023-05-14T09:25:16.578Z,38.38
2023-05-14T09:30:19.926Z,37.78
2023-05-14T09:35:25.115Z,36.96
2023-05-14T09:40:29.190Z,37.01
2023-05-14T09:45:32.765Z,36.42
2023-05-14T09:50:42.998Z,35.58
2023-05-14T09:55:46.882Z,35.65
2023-05-14T10:01:13.505Z,34.63
2023-05-14T10:07:12.326Z,33.84
2023-05-14T10:12:58.766Z,33.85
2023-05-14T10:18:40.607Z,32.90
2023-05-14T10:24:05.710Z,32.27
2023-05-14T10:35:13.395Z,32.91
2023-05-14T10:40:24.949Z,33.46
2023-05-14T10:45:33.936Z,33.57
2023-05-14T10:50:40.097Z,34.67
2023-05-14T10:55:44.315Z,34.00
2023-05-14T11:00:50.168Z,33.72
2023-05-14T11:05:54.956Z,34.65
2023-05-14T11:10:58.410Z,34.45
2023-05-14T11:16:15.044Z,34.54
2023-05-14T11:21:25.533Z,34.40
2023-05-14T11:26:28.969Z,33.93
2023-05-14T11:31:32.431Z,33.96
2023-05-14T11:36:37.199Z,33.16
2023-05-14T11:41:45.770Z,33.47
2023-05-14T11:46:59.469Z,34.31
2023-05-14T11:52:07.456Z,32.68
2023-05-14T11:57:19.773Z,31.90
2023-05-14T12:02:23.518Z,31.49
2023-05-14T12:07:30.260Z,30.70
2023-05-14T12:12:37.425Z,30.05
2023-05-14T12:17:41.330Z,30.84
2023-05-14T12:22:44.591Z,31.13
2023-05-14T12:27:47.939Z,31.09
2023-05-14T12:32:53.065Z,31.29
2023-05-14T12:38:02.577Z,31.67
2023-05-14T12:43:08.463Z,31.67
2023-05-14T12:48:18.069Z,31.59
2023-05-14T12:53:33.217Z,31.38
2023-05-14T12:58:57.297Z,31.52
2023-05-14T13:04:01.023Z,31.91
2023-05-14T13:09:04.547Z,31.53
2023-05-14T13:14:17.858Z,32.55
2023-05-14T13:19:28.080Z,32.05
2023-05-14T13:24:31.585Z,32.20
2023-05-14T13:29:47.029Z,31.85
2023-05-14T13:34:53.132Z,31.76
2023-05-14T13:40:20.874Z,32.60
2023-05-14T13:45:35.585Z,32.07
2023-05-14T13:50:38.822Z,32.16
2023-05-14T13:55:56.523Z,32.14
2023-05-14T14:01:00.026Z,31.75
2023-05-14T14:06:18.672Z,32.30
2023-05-14T14:11:22.101Z,32.46
2023-05-14T14:16:25.410Z,32.39
2023-05-14T14:21:51.815Z,32.99
2023-05-14T14:27:02.506Z,32.94
2023-05-14T14:32:06.349Z,32.75
2023-05-14T14:37:13.040Z,33.24
2023-05-14T14:42:22.428Z,33.05
2023-05-14T14:47:25.719Z,33.13
2023-05-14T14:52:29.245Z,33.28
2023-05-14T15:03:33.515Z,32.51
2023-05-14T15:08:49.348Z,32.72
2023-05-14T15:13:59.096Z,32.28
2023-05-14T15:19:05.090Z,32.63
2023-05-14T15:24:25.248Z,32.83
2023-05-14T15:29:55.868Z,33.07
2023-05-14T15:35:01.989Z,32.93
2023-05-14T15:40:15.142Z,32.92
2023-05-14T15:45:21.225Z,33.31
2023-05-14T15:50:49.656Z,33.82
2023-05-14T15:56:05.684Z,34.65
2023-05-14T16:01:40.457Z,34.13
2023-05-14T16:07:01.874Z,34.68
2023-05-14T16:12:23.152Z,34.96
2023-05-14T16:18:25.353Z,34.50
2023-05-14T16:48:23.256Z,33.93
2023-05-14T16:54:05.672Z,34.33
2023-05-14T17:12:32.697Z,34.83
2023-05-14T17:18:53.191Z,34.49
2023-05-14T17:24:39.121Z,34.57
2023-05-14T17:29:59.898Z,35.21
2023-05-14T17:35:10.507Z,35.54
2023-05-14T17:41:03.228Z,35.59
2023-05-14T17:46:53.832Z,35.72
2023-05-14T17:52:33.377Z,36.10
2023-05-14T17:57:54.247Z,36.23
2023-05-14T18:03:37.832Z,36.55
2023-05-14T18:14:32.547Z,37.27
2023-05-14T18:19:36.776Z,37.72
2023-05-14T18:25:07.852Z,38.72
2023-05-14T18:30:39.945Z,39.85
2023-05-14T18:35:49.688Z,40.73
2023-05-14T18:40:52.940Z,41.44
2023-05-14T18:45:56.282Z,41.30
2023-05-14T18:51:18.192Z,42.95
2023-05-14T18:56:25.704Z,43.82
2023-05-14T19:01:51.406Z,43.79
2023-05-14T19:07:00.634Z,45.09
2023-05-14T19:12:09.943Z,45.78
2023-05-14T19:17:31.827Z,46.43
2023-05-14T19:40:50.925Z,47.79
2023-05-14T19:46:12.329Z,47.69
2023-05-14T19:51:15.730Z,48.05
2023-05-14T19:56:19.190Z,48.08
2023-05-14T20:01:22.752Z,48.53
2023-05-14T20:06:26.287Z,49.02
2023-05-14T20:11:29.453Z,48.31
2023-05-14T20:16:32.683Z,48.85
2023-05-14T20:21:35.989Z,49.60
2023-05-14T20:26:39.215Z,49.91
2023-05-14T20:31:42.554Z,50.02
2023-05-14T20:36:46.107Z,49.33
2023-05-14T20:41:49.598Z,48.27
2023-05-14T20:46:53.174Z,47.92
2023-05-14T20:51:56.602Z,47.53
2023-05-14T20:56:59.989Z,47.13
2023-05-14T21:02:03.940Z,46.86
2023-05-14T21:07:30.409Z,46.71
2023-05-14T21:12:33.700Z,46.75
2023-05-14T21:17:37.090Z,46.64
2023-05-14T21:22:40.825Z,46.43
2023-05-14T21:27:44.099Z,46.44
2023-05-14T21:32:47.623Z,46.39
2023-05-14T21:37:51.692Z,46.48
2023-05-14T21:42:55.039Z,46.63
2023-05-14T21:47:58.748Z,46.68
2023-05-14T21:53:12.559Z,46.74
2023-05-14T21:58:15.919Z,46.77
2023-05-14T22:03:19.531Z,46.91
2023-05-14T22:08:23.920Z,47.04
2023-05-14T22:13:27.518Z,47.02
2023-05-14T22:18:31.352Z,46.90
2023-05-14T22:23:34.549Z,46.98
2023-05-14T22:28:42.911Z,47.15
2023-05-14T22:33:46.215Z,47.09
2023-05-14T22:38:49.375Z,47.09
2023-05-14T22:43:52.660Z,47.12
2023-05-14T22:48:56.289Z,47.13
2023-05-14T22:53:59.448Z,47.15
2023-05-14T22:59:02.649Z,47.18
2023-05-14T23:04:06.025Z,47.36
2023-05-14T23:09:09.818Z,47.39
2023-05-14T23:14:13.012Z,47.43
2023-05-14T23:19:16.513Z,47.55
2023-05-14T23:24:19.942Z,47.57
2023-05-14T23:29:23.241Z,47.63
2023-05-14T23:34:27.242Z,47.68
2023-05-14T23:39:30.778Z,47.88
2023-05-14T23:44:34.059Z,47.98
2023-05-14T23:49:37.580Z,48.02
2023-05-14T23:54:40.925Z,48.20
2023-05-14T23:59:44.247Z,48.40
